Pikeville, North Carolina
Current Conditions -  °F | °C
As of 11:15 AM on Saturday 25 Oct 2014 (Local Time) from KGWW Reporting Station
Clear Clear  
Wind Chill: 63°   Ceiling: Unl
Heat Index: 63°   Visibility: 10mi
Dew Point: 44°   Wind: 6mph
Humidity: 50%   Direction: 50°NE
Pressure: 30"   Gusts: NA
Location:  35.5°N, 77.98°W
Report Text: KGWW 251515Z AUTO 05005KT 10SM CLR 17/07 A3000 RMK AO2 T01710067
Loading
Personal Weather Stations






























Interactive Weather Map
Tropical Storm Tracking
New forecast layout! Learn more

10-Day Weather Forecast

Advertisements
Track Severe Weather on mobile